sensor_id;sensor_type;location;lat;lon;timestamp;pressure;altitude;pressure_sealevel;temperature;humidity
82388;BME280;72027;47.420;9.310;2023-11-21T00:00:16;92978.50;;;5.39;77.60
82388;BME280;72027;47.420;9.310;2023-11-21T00:02:46;92976.53;;;5.39;78.18
82388;BME280;72027;47.420;9.310;2023-11-21T00:05:14;92975.75;;;5.39;76.74
82388;BME280;72027;47.420;9.310;2023-11-21T00:07:43;92968.28;;;5.39;77.54
82388;BME280;72027;47.420;9.310;2023-11-21T00:10:12;92972.25;;;5.38;77.49
82388;BME280;72027;47.420;9.310;2023-11-21T00:12:42;92960.50;;;5.38;77.36
82388;BME280;72027;47.420;9.310;2023-11-21T00:15:10;92959.75;;;5.37;77.45
82388;BME280;72027;47.420;9.310;2023-11-21T00:17:38;92960.16;;;5.36;77.11
82388;BME280;72027;47.420;9.310;2023-11-21T00:20:08;92953.91;;;5.35;76.88
82388;BME280;72027;47.420;9.310;2023-11-21T00:22:39;92948.84;;;5.34;77.04
82388;BME280;72027;47.420;9.310;2023-11-21T00:25:08;92948.53;;;5.32;77.95
82388;BME280;72027;47.420;9.310;2023-11-21T00:27:36;92957.31;;;5.26;77.45
82388;BME280;72027;47.420;9.310;2023-11-21T00:30:05;92961.09;;;5.20;77.40
82388;BME280;72027;47.420;9.310;2023-11-21T00:32:35;92960.88;;;5.14;76.66
82388;BME280;72027;47.420;9.310;2023-11-21T00:35:03;92953.63;;;5.07;77.28
82388;BME280;72027;47.420;9.310;2023-11-21T00:37:34;92954.19;;;5.02;77.44
82388;BME280;72027;47.420;9.310;2023-11-21T00:40:02;92951.91;;;5.01;77.74
82388;BME280;72027;47.420;9.310;2023-11-21T00:42:33;92954.88;;;4.94;78.61
82388;BME280;72027;47.420;9.310;2023-11-21T00:45:02;92953.88;;;4.88;78.28
82388;BME280;72027;47.420;9.310;2023-11-21T00:47:30;92952.03;;;4.84;78.60
82388;BME280;72027;47.420;9.310;2023-11-21T00:50:01;92945.44;;;4.82;79.38
82388;BME280;72027;47.420;9.310;2023-11-21T00:52:29;92950.59;;;4.80;79.08
82388;BME280;72027;47.420;9.310;2023-11-21T00:54:58;92954.09;;;4.80;80.17
82388;BME280;72027;47.420;9.310;2023-11-21T00:57:26;92947.97;;;4.76;81.45
82388;BME280;72027;47.420;9.310;2023-11-21T00:59:54;92942.59;;;4.73;82.83
82388;BME280;72027;47.420;9.310;2023-11-21T01:02:22;92938.84;;;4.67;82.95
82388;BME280;72027;47.420;9.310;2023-11-21T01:04:50;92943.69;;;4.62;82.84
82388;BME280;72027;47.420;9.310;2023-11-21T01:07:19;92935.91;;;4.61;82.73
82388;BME280;72027;47.420;9.310;2023-11-21T01:09:47;92932.41;;;4.60;82.44
82388;BME280;72027;47.420;9.310;2023-11-21T01:12:16;92935.78;;;4.64;80.63
82388;BME280;72027;47.420;9.310;2023-11-21T01:14:45;92937.44;;;4.75;79.98
82388;BME280;72027;47.420;9.310;2023-11-21T01:17:13;92938.41;;;4.81;79.17
82388;BME280;72027;47.420;9.310;2023-11-21T01:19:40;92930.06;;;4.84;79.39
82388;BME280;72027;47.420;9.310;2023-11-21T01:22:08;92938.19;;;4.88;79.02
82388;BME280;72027;47.420;9.310;2023-11-21T01:24:38;92940.81;;;4.92;79.73
82388;BME280;72027;47.420;9.310;2023-11-21T01:27:06;92945.09;;;4.93;78.52
82388;BME280;72027;47.420;9.310;2023-11-21T01:29:36;92946.63;;;4.94;78.34
82388;BME280;72027;47.420;9.310;2023-11-21T01:32:05;92950.47;;;4.96;79.08
82388;BME280;72027;47.420;9.310;2023-11-21T01:34:34;92946.19;;;4.95;79.07
82388;BME280;72027;47.420;9.310;2023-11-21T01:37:02;92946.19;;;4.95;80.07
82388;BME280;72027;47.420;9.310;2023-11-21T01:39:32;92936.41;;;4.94;80.31
82388;BME280;72027;47.420;9.310;2023-11-21T01:41:59;92941.81;;;4.98;79.18
82388;BME280;72027;47.420;9.310;2023-11-21T01:44:27;92931.59;;;4.98;80.04
82388;BME280;72027;47.420;9.310;2023-11-21T01:46:58;92929.94;;;5.01;79.13
82388;BME280;72027;47.420;9.310;2023-11-21T01:49:26;92938.38;;;5.06;78.20
82388;BME280;72027;47.420;9.310;2023-11-21T01:51:54;92932.00;;;5.10;77.59
82388;BME280;72027;47.420;9.310;2023-11-21T01:54:23;92936.59;;;5.13;78.16
82388;BME280;72027;47.420;9.310;2023-11-21T01:56:51;92934.63;;;5.13;79.13
82388;BME280;72027;47.420;9.310;2023-11-21T01:59:21;92939.00;;;5.11;79.29
82388;BME280;72027;47.420;9.310;2023-11-21T02:01:50;92930.47;;;5.08;78.91
82388;BME280;72027;47.420;9.310;2023-11-21T02:04:19;92920.25;;;5.09;78.69
82388;BME280;72027;47.420;9.310;2023-11-21T02:06:47;92933.09;;;5.12;77.09
82388;BME280;72027;47.420;9.310;2023-11-21T02:09:24;92931.78;;;5.17;77.39
82388;BME280;72027;47.420;9.310;2023-11-21T02:11:52;92921.88;;;5.19;77.25
82388;BME280;72027;47.420;9.310;2023-11-21T02:14:23;92917.59;;;5.18;76.59
82388;BME280;72027;47.420;9.310;2023-11-21T02:16:51;92920.78;;;5.17;76.87
82388;BME280;72027;47.420;9.310;2023-11-21T02:19:21;92917.72;;;5.15;77.10
82388;BME280;72027;47.420;9.310;2023-11-21T02:21:53;92918.16;;;5.13;77.11
82388;BME280;72027;47.420;9.310;2023-11-21T02:24:22;92913.88;;;5.12;77.85
82388;BME280;72027;47.420;9.310;2023-11-21T02:26:51;92906.84;;;5.11;78.92
82388;BME280;72027;47.420;9.310;2023-11-21T02:29:19;92897.53;;;5.08;78.87
82388;BME280;72027;47.420;9.310;2023-11-21T02:31:53;92900.84;;;5.03;78.86
82388;BME280;72027;47.420;9.310;2023-11-21T02:34:22;92898.53;;;5.02;79.49
82388;BME280;72027;47.420;9.310;2023-11-21T02:36:51;92891.59;;;4.97;79.56
82388;BME280;72027;47.420;9.310;2023-11-21T02:39:20;92892.81;;;4.96;80.82
82388;BME280;72027;47.420;9.310;2023-11-21T02:41:51;92890.97;;;4.93;81.17
82388;BME280;72027;47.420;9.310;2023-11-21T02:44:20;92882.41;;;4.91;81.06
82388;BME280;72027;47.420;9.310;2023-11-21T02:46:47;92880.13;;;4.90;81.83
82388;BME280;72027;47.420;9.310;2023-11-21T02:49:16;92883.72;;;4.86;81.93
82388;BME280;72027;47.420;9.310;2023-11-21T02:51:43;92889.78;;;4.81;82.37
82388;BME280;72027;47.420;9.310;2023-11-21T02:54:11;92882.75;;;4.80;82.07
82388;BME280;72027;47.420;9.310;2023-11-21T02:56:39;92891.88;;;4.77;83.03
82388;BME280;72027;47.420;9.310;2023-11-21T02:59:09;92886.81;;;4.76;82.60
82388;BME280;72027;47.420;9.310;2023-11-21T03:01:37;92882.88;;;4.77;81.81
82388;BME280;72027;47.420;9.310;2023-11-21T03:04:05;92890.78;;;4.75;82.20
82388;BME280;72027;47.420;9.310;2023-11-21T03:06:33;92890.03;;;4.74;81.85
82388;BME280;72027;47.420;9.310;2023-11-21T03:09:01;92887.69;;;4.73;82.43
82388;BME280;72027;47.420;9.310;2023-11-21T03:11:29;92890.91;;;4.71;82.49
82388;BME280;72027;47.420;9.310;2023-11-21T03:13:57;92888.59;;;4.70;82.36
82388;BME280;72027;47.420;9.310;2023-11-21T03:16:26;92883.09;;;4.70;82.75
82388;BME280;72027;47.420;9.310;2023-11-21T03:18:54;92891.78;;;4.68;83.57
82388;BME280;72027;47.420;9.310;2023-11-21T03:21:21;92887.94;;;4.66;83.68
82388;BME280;72027;47.420;9.310;2023-11-21T03:23:49;92886.84;;;4.63;83.96
82388;BME280;72027;47.420;9.310;2023-11-21T03:26:17;92889.59;;;4.63;83.04
82388;BME280;72027;47.420;9.310;2023-11-21T03:28:45;92894.63;;;4.64;83.19
82388;BME280;72027;47.420;9.310;2023-11-21T03:31:13;92890.38;;;4.63;83.39
82388;BME280;72027;47.420;9.310;2023-11-21T03:33:44;92893.09;;;4.63;83.59
82388;BME280;72027;47.420;9.310;2023-11-21T03:36:13;92893.09;;;4.63;83.49
82388;BME280;72027;47.420;9.310;2023-11-21T03:38:42;92897.72;;;4.67;81.74
82388;BME280;72027;47.420;9.310;2023-11-21T03:41:10;92898.03;;;4.69;81.74
82388;BME280;72027;47.420;9.310;2023-11-21T03:43:38;92895.59;;;4.71;81.36
82388;BME280;72027;47.420;9.310;2023-11-21T03:46:06;92893.19;;;4.73;82.17
82388;BME280;72027;47.420;9.310;2023-11-21T03:48:35;92906.16;;;4.72;83.26
82388;BME280;72027;47.420;9.310;2023-11-21T03:51:05;92905.81;;;4.70;83.33
82388;BME280;72027;47.420;9.310;2023-11-21T03:53:34;92908.69;;;4.67;83.84
82388;BME280;72027;47.420;9.310;2023-11-21T03:56:02;92911.44;;;4.67;83.53
82388;BME280;72027;47.420;9.310;2023-11-21T03:58:30;92917.03;;;4.63;83.68
82388;BME280;72027;47.420;9.310;2023-11-21T04:00:57;92913.97;;;4.61;83.47
82388;BME280;72027;47.420;9.310;2023-11-21T04:03:25;92911.63;;;4.59;83.94
82388;BME280;72027;47.420;9.310;2023-11-21T04:05:53;92922.63;;;4.59;83.93
82388;BME280;72027;47.420;9.310;2023-11-21T04:08:22;92918.69;;;4.60;84.26
82388;BME280;72027;47.420;9.310;2023-11-21T04:10:50;92931.59;;;4.60;84.89
82388;BME280;72027;47.420;9.310;2023-11-21T04:13:20;92928.34;;;4.52;84.67
82388;BME280;72027;47.420;9.310;2023-11-21T04:15:47;92929.66;;;4.48;85.07
82388;BME280;72027;47.420;9.310;2023-11-21T04:18:15;92928.56;;;4.45;86.41
82388;BME280;72027;47.420;9.310;2023-11-21T04:20:43;92927.34;;;4.46;87.17
82388;BME280;72027;47.420;9.310;2023-11-21T04:23:10;92935.78;;;4.39;86.85
82388;BME280;72027;47.420;9.310;2023-11-21T04:25:41;92925.78;;;4.32;87.06
82388;BME280;72027;47.420;9.310;2023-11-21T04:28:08;92929.84;;;4.28;87.82
82388;BME280;72027;47.420;9.310;2023-11-21T04:30:36;92930.72;;;4.25;87.65
82388;BME280;72027;47.420;9.310;2023-11-21T04:33:06;92932.81;;;4.21;87.92
82388;BME280;72027;47.420;9.310;2023-11-21T04:35:34;92930.94;;;4.17;88.67
82388;BME280;72027;47.420;9.310;2023-11-21T04:38:02;92936.97;;;4.12;88.01
82388;BME280;72027;47.420;9.310;2023-11-21T04:40:29;92931.22;;;4.07;88.18
82388;BME280;72027;47.420;9.310;2023-11-21T04:42:58;92925.88;;;4.03;88.40
82388;BME280;72027;47.420;9.310;2023-11-21T04:45:26;92932.22;;;4.00;89.30
82388;BME280;72027;47.420;9.310;2023-11-21T04:47:54;92933.44;;;3.99;89.58
82388;BME280;72027;47.420;9.310;2023-11-21T04:50:22;92932.66;;;3.98;89.85
82388;BME280;72027;47.420;9.310;2023-11-21T04:52:52;92929.16;;;3.98;89.60
82388;BME280;72027;47.420;9.310;2023-11-21T04:55:20;92926.06;;;3.96;90.91
82388;BME280;72027;47.420;9.310;2023-11-21T04:57:48;92926.59;;;3.91;90.57
82388;BME280;72027;47.420;9.310;2023-11-21T05:00:17;92935.28;;;3.89;90.45
82388;BME280;72027;47.420;9.310;2023-11-21T05:02:45;92925.19;;;3.86;90.50
82388;BME280;72027;47.420;9.310;2023-11-21T05:05:13;92924.84;;;3.84;90.44
82388;BME280;72027;47.420;9.310;2023-11-21T05:07:41;92929.56;;;3.84;90.39
82388;BME280;72027;47.420;9.310;2023-11-21T05:10:09;92934.28;;;3.83;91.15
82388;BME280;72027;47.420;9.310;2023-11-21T05:12:39;92934.69;;;3.82;91.02
82388;BME280;72027;47.420;9.310;2023-11-21T05:15:08;92937.09;;;3.80;91.62
82388;BME280;72027;47.420;9.310;2023-11-21T05:17:38;92936.75;;;3.78;90.88
82388;BME280;72027;47.420;9.310;2023-11-21T05:20:09;92937.97;;;3.77;91.40
82388;BME280;72027;47.420;9.310;2023-11-21T05:22:37;92938.72;;;3.77;91.92
82388;BME280;72027;47.420;9.310;2023-11-21T05:25:06;92941.47;;;3.77;91.97
82388;BME280;72027;47.420;9.310;2023-11-21T05:27:35;92944.22;;;3.77;91.61
82388;BME280;72027;47.420;9.310;2023-11-21T05:30:03;92940.72;;;3.77;91.97
82388;BME280;72027;47.420;9.310;2023-11-21T05:32:32;92940.72;;;3.77;91.83
82388;BME280;72027;47.420;9.310;2023-11-21T05:35:02;92952.44;;;3.77;91.46
82388;BME280;72027;47.420;9.310;2023-11-21T05:37:29;92946.19;;;3.77;91.91
82388;BME280;72027;47.420;9.310;2023-11-21T05:39:57;92947.72;;;3.78;91.86
82388;BME280;72027;47.420;9.310;2023-11-21T05:42:26;92950.47;;;3.78;91.88
82388;BME280;72027;47.420;9.310;2023-11-21T05:44:54;92954.41;;;3.77;92.05
82388;BME280;72027;47.420;9.310;2023-11-21T05:47:21;92954.41;;;3.77;91.87
82388;BME280;72027;47.420;9.310;2023-11-21T05:49:49;92955.63;;;3.75;91.94
82388;BME280;72027;47.420;9.310;2023-11-21T05:52:19;92948.59;;;3.74;92.45
82388;BME280;72027;47.420;9.310;2023-11-21T05:54:47;92959.53;;;3.74;91.85
82388;BME280;72027;47.420;9.310;2023-11-21T05:57:15;92952.13;;;3.75;91.79
82388;BME280;72027;47.420;9.310;2023-11-21T05:59:43;92954.88;;;3.75;91.94
82388;BME280;72027;47.420;9.310;2023-11-21T06:02:12;92954.06;;;3.74;92.16
82388;BME280;72027;47.420;9.310;2023-11-21T06:04:40;92956.50;;;3.72;92.22
82388;BME280;72027;47.420;9.310;2023-11-21T06:07:08;92945.19;;;3.70;92.20
82388;BME280;72027;47.420;9.310;2023-11-21T06:09:38;92949.56;;;3.68;92.58
82388;BME280;72027;47.420;9.310;2023-11-21T06:12:06;92948.00;;;3.67;92.35
82388;BME280;72027;47.420;9.310;2023-11-21T06:14:34;92950.44;;;3.65;92.09
82388;BME280;72027;47.420;9.310;2023-11-21T06:17:03;92952.38;;;3.64;92.00
82388;BME280;72027;47.420;9.310;2023-11-21T06:19:31;92952.38;;;3.64;92.43
82388;BME280;72027;47.420;9.310;2023-11-21T06:21:59;92956.69;;;3.65;91.96
82388;BME280;72027;47.420;9.310;2023-11-21T06:24:28;92959.41;;;3.65;92.66
82388;BME280;72027;47.420;9.310;2023-11-21T06:26:57;92964.56;;;3.63;91.94
82388;BME280;72027;47.420;9.310;2023-11-21T06:29:25;92968.50;;;3.62;92.29
82388;BME280;72027;47.420;9.310;2023-11-21T06:31:53;92970.91;;;3.60;92.27
82388;BME280;72027;47.420;9.310;2023-11-21T06:34:21;92972.53;;;3.58;92.61
82388;BME280;72027;47.420;9.310;2023-11-21T06:36:49;92978.78;;;3.58;92.68
82388;BME280;72027;47.420;9.310;2023-11-21T06:39:18;92978.00;;;3.58;92.07
82388;BME280;72027;47.420;9.310;2023-11-21T06:41:49;92983.50;;;3.58;91.98
82388;BME280;72027;47.420;9.310;2023-11-21T06:44:18;92981.97;;;3.57;91.65
82388;BME280;72027;47.420;9.310;2023-11-21T06:46:46;92981.50;;;3.58;92.02
82388;BME280;72027;47.420;9.310;2023-11-21T06:49:15;92981.50;;;3.58;92.28
82388;BME280;72027;47.420;9.310;2023-11-21T06:51:43;92985.00;;;3.59;92.38
82388;BME280;72027;47.420;9.310;2023-11-21T06:54:11;92989.31;;;3.60;92.39
82388;BME280;72027;47.420;9.310;2023-11-21T06:56:40;92983.38;;;3.61;92.14
82388;BME280;72027;47.420;9.310;2023-11-21T06:59:07;92988.44;;;3.63;92.29
82388;BME280;72027;47.420;9.310;2023-11-21T07:01:36;92990.41;;;3.62;92.66
82388;BME280;72027;47.420;9.310;2023-11-21T07:04:05;93001.69;;;3.64;91.83
82388;BME280;72027;47.420;9.310;2023-11-21T07:06:33;92998.94;;;3.64;92.65
82388;BME280;72027;47.420;9.310;2023-11-21T07:09:01;92996.66;;;3.63;92.58
82388;BME280;72027;47.420;9.310;2023-11-21T07:11:29;93006.41;;;3.64;92.07
82388;BME280;72027;47.420;9.310;2023-11-21T07:13:57;93004.78;;;3.66;92.23
82388;BME280;72027;47.420;9.310;2023-11-21T07:16:25;93002.03;;;3.66;92.55
82388;BME280;72027;47.420;9.310;2023-11-21T07:18:54;93004.78;;;3.66;93.15
82388;BME280;72027;47.420;9.310;2023-11-21T07:21:22;93012.56;;;3.68;92.42
82388;BME280;72027;47.420;9.310;2023-11-21T07:23:51;93003.91;;;3.69;93.27
82388;BME280;72027;47.420;9.310;2023-11-21T07:26:19;93004.25;;;3.71;93.10
82388;BME280;72027;47.420;9.310;2023-11-21T07:28:47;93009.31;;;3.73;92.51
82388;BME280;72027;47.420;9.310;2023-11-21T07:31:14;93013.16;;;3.75;92.52
82388;BME280;72027;47.420;9.310;2023-11-21T07:33:42;93013.16;;;3.75;92.73
82388;BME280;72027;47.420;9.310;2023-11-21T07:36:11;93013.47;;;3.78;92.37
82388;BME280;72027;47.420;9.310;2023-11-21T07:38:39;93010.72;;;3.78;93.56
82388;BME280;72027;47.420;9.310;2023-11-21T07:41:07;93011.94;;;3.77;93.50
82388;BME280;72027;47.420;9.310;2023-11-21T07:43:45;93004.50;;;3.77;93.35
82388;BME280;72027;47.420;9.310;2023-11-21T07:46:13;93014.69;;;3.77;93.34
82388;BME280;72027;47.420;9.310;2023-11-21T07:48:42;93018.19;;;3.77;93.25
82388;BME280;72027;47.420;9.310;2023-11-21T07:51:11;93016.56;;;3.80;92.97
82388;BME280;72027;47.420;9.310;2023-11-21T07:53:39;93025.47;;;3.84;93.06
82388;BME280;72027;47.420;9.310;2023-11-21T07:56:08;93021.50;;;3.85;92.95
82388;BME280;72027;47.420;9.310;2023-11-21T07:58:36;93018.78;;;3.85;92.95
82388;BME280;72027;47.420;9.310;2023-11-21T08:01:05;93021.09;;;3.86;93.08
82388;BME280;72027;47.420;9.310;2023-11-21T08:03:33;93022.19;;;3.89;92.24
82388;BME280;72027;47.420;9.310;2023-11-21T08:06:01;93029.97;;;3.90;92.80
82388;BME280;72027;47.420;9.310;2023-11-21T08:08:31;93021.22;;;3.95;92.32
82388;BME280;72027;47.420;9.310;2023-11-21T08:10:59;93018.81;;;3.97;92.92
82388;BME280;72027;47.420;9.310;2023-11-21T08:13:29;93023.53;;;3.97;91.22
82388;BME280;72027;47.420;9.310;2023-11-21T08:15:57;93028.16;;;4.00;91.52
82388;BME280;72027;47.420;9.310;2023-11-21T08:18:28;93024.66;;;4.00;90.86
82388;BME280;72027;47.420;9.310;2023-11-21T08:20:56;93027.72;;;4.02;90.36
82388;BME280;72027;47.420;9.310;2023-11-21T08:23:24;93026.84;;;4.05;90.69
82388;BME280;72027;47.420;9.310;2023-11-21T08:25:54;93020.84;;;4.10;90.65
82388;BME280;72027;47.420;9.310;2023-11-21T08:28:22;93024.25;;;4.14;90.30
82388;BME280;72027;47.420;9.310;2023-11-21T08:30:52;93020.97;;;4.19;90.73
82388;BME280;72027;47.420;9.310;2023-11-21T08:33:20;93019.66;;;4.24;90.01
82388;BME280;72027;47.420;9.310;2023-11-21T08:35:48;93021.53;;;4.27;89.75
82388;BME280;72027;47.420;9.310;2023-11-21T08:38:16;93013.88;;;4.34;89.31
82388;BME280;72027;47.420;9.310;2023-11-21T08:40:44;93015.97;;;4.43;89.46
82388;BME280;72027;47.420;9.310;2023-11-21T08:43:13;93028.06;;;4.58;89.31
82388;BME280;72027;47.420;9.310;2023-11-21T08:45:42;93026.53;;;4.70;88.47
82388;BME280;72027;47.420;9.310;2023-11-21T08:48:10;93034.44;;;4.81;88.39
82388;BME280;72027;47.420;9.310;2023-11-21T08:50:38;93034.91;;;4.92;88.42
82388;BME280;72027;47.420;9.310;2023-11-21T08:53:06;93031.16;;;4.99;87.77
82388;BME280;72027;47.420;9.310;2023-11-21T08:55:34;93029.41;;;5.05;87.36
82388;BME280;72027;47.420;9.310;2023-11-21T08:58:04;93035.22;;;5.07;86.59
82388;BME280;72027;47.420;9.310;2023-11-21T09:00:34;93040.28;;;5.08;86.05
82388;BME280;72027;47.420;9.310;2023-11-21T09:03:02;93038.72;;;5.07;86.55
82388;BME280;72027;47.420;9.310;2023-11-21T09:05:37;93041.47;;;5.07;86.21
82388;BME280;72027;47.420;9.310;2023-11-21T09:08:06;93041.06;;;5.09;85.59
82388;BME280;72027;47.420;9.310;2023-11-21T09:10:34;93050.50;;;5.08;85.95
82388;BME280;72027;47.420;9.310;2023-11-21T09:13:03;93038.72;;;5.07;85.24
82388;BME280;72027;47.420;9.310;2023-11-21T09:15:31;93046.66;;;5.05;85.08
82388;BME280;72027;47.420;9.310;2023-11-21T09:18:00;93050.94;;;5.06;85.51
82388;BME280;72027;47.420;9.310;2023-11-21T09:20:28;93046.22;;;5.07;86.09
82388;BME280;72027;47.420;9.310;2023-11-21T09:22:56;93052.47;;;5.07;86.48
82388;BME280;72027;47.420;9.310;2023-11-21T09:25:24;93057.41;;;5.13;85.37
82388;BME280;72027;47.420;9.310;2023-11-21T09:27:52;93055.44;;;5.13;85.76
82388;BME280;72027;47.420;9.310;2023-11-21T09:30:19;93056.09;;;5.17;85.50
82388;BME280;72027;47.420;9.310;2023-11-21T09:32:47;93052.03;;;5.22;85.38
82388;BME280;72027;47.420;9.310;2023-11-21T09:35:17;93061.81;;;5.23;84.77
82388;BME280;72027;47.420;9.310;2023-11-21T09:37:45;93057.97;;;5.20;84.44
82388;BME280;72027;47.420;9.310;2023-11-21T09:40:15;93065.75;;;5.22;85.13
82388;BME280;72027;47.420;9.310;2023-11-21T09:42:54;93064.00;;;5.28;85.57
82388;BME280;72027;47.420;9.310;2023-11-21T09:45:25;93066.75;;;5.28;84.80
82388;BME280;72027;47.420;9.310;2023-11-21T09:47:54;93062.91;;;5.25;85.14
82388;BME280;72027;47.420;9.310;2023-11-21T09:50:26;93056.31;;;5.23;84.53
82388;BME280;72027;47.420;9.310;2023-11-21T09:52:57;93057.75;;;5.27;84.60
82388;BME280;72027;47.420;9.310;2023-11-21T09:55:27;93062.47;;;5.27;84.57
82388;BME280;72027;47.420;9.310;2023-11-21T09:57:57;93060.16;;;5.25;85.28
82388;BME280;72027;47.420;9.310;2023-11-21T10:00:25;93055.31;;;5.29;85.40
82388;BME280;72027;47.420;9.310;2023-11-21T10:02:54;93060.38;;;5.31;85.88
82388;BME280;72027;47.420;9.310;2023-11-21T10:05:23;93062.22;;;5.34;85.96
82388;BME280;72027;47.420;9.310;2023-11-21T10:07:55;93064.97;;;5.34;85.99
82388;BME280;72027;47.420;9.310;2023-11-21T10:10:24;93060.38;;;5.31;86.21
82388;BME280;72027;47.420;9.310;2023-11-21T10:12:56;93061.25;;;5.28;86.81
82388;BME280;72027;47.420;9.310;2023-11-21T10:15:24;93063.66;;;5.26;86.89
82388;BME280;72027;47.420;9.310;2023-11-21T10:17:53;93061.38;;;5.24;87.13
82388;BME280;72027;47.420;9.310;2023-11-21T10:20:23;93061.81;;;5.23;87.04
82388;BME280;72027;47.420;9.310;2023-11-21T10:22:51;93050.59;;;5.17;87.85
82388;BME280;72027;47.420;9.310;2023-11-21T10:25:20;93055.75;;;5.15;87.76
82388;BME280;72027;47.420;9.310;2023-11-21T10:27:49;93046.41;;;5.13;87.75
82388;BME280;72027;47.420;9.310;2023-11-21T10:30:18;93047.19;;;5.13;87.83
82388;BME280;72027;47.420;9.310;2023-11-21T10:32:46;93050.59;;;5.17;88.43
82388;BME280;72027;47.420;9.310;2023-11-21T10:35:14;93049.72;;;5.20;88.78
82388;BME280;72027;47.420;9.310;2023-11-21T10:37:42;93048.84;;;5.23;88.77
82388;BME280;72027;47.420;9.310;2023-11-21T10:40:10;93052.25;;;5.27;89.01
82388;BME280;72027;47.420;9.310;2023-11-21T10:42:41;93052.13;;;5.31;88.88
82388;BME280;72027;47.420;9.310;2023-11-21T10:45:09;93057.53;;;5.35;88.91
82388;BME280;72027;47.420;9.310;2023-11-21T10:47:40;93053.44;;;5.39;88.25
82388;BME280;72027;47.420;9.310;2023-11-21T10:50:09;93042.66;;;5.45;88.29
82388;BME280;72027;47.420;9.310;2023-11-21T10:52:39;93038.91;;;5.51;88.64
82388;BME280;72027;47.420;9.310;2023-11-21T10:55:16;93042.31;;;5.56;89.00
82388;BME280;72027;47.420;9.310;2023-11-21T10:57:48;93033.97;;;5.59;89.12
82388;BME280;72027;47.420;9.310;2023-11-21T11:00:19;93035.69;;;5.66;89.22
82388;BME280;72027;47.420;9.310;2023-11-21T11:02:48;93039.09;;;5.70;89.23
82388;BME280;72027;47.420;9.310;2023-11-21T11:05:20;93037.31;;;5.76;89.51
82388;BME280;72027;47.420;9.310;2023-11-21T11:07:50;93040.25;;;5.82;89.23
82388;BME280;72027;47.420;9.310;2023-11-21T11:10:21;93034.53;;;5.89;89.24
82388;BME280;72027;47.420;9.310;2023-11-21T11:12:54;93037.50;;;5.94;88.65
82388;BME280;72027;47.420;9.310;2023-11-21T11:15:22;93033.88;;;5.98;88.86
82388;BME280;72027;47.420;9.310;2023-11-21T11:17:49;93035.63;;;6.04;88.62
82388;BME280;72027;47.420;9.310;2023-11-21T11:20:17;93037.00;;;6.09;88.23
82388;BME280;72027;47.420;9.310;2023-11-21T11:22:54;93030.63;;;6.12;86.28
82388;BME280;72027;47.420;9.310;2023-11-21T11:25:34;93037.00;;;6.09;84.95
82388;BME280;72027;47.420;9.310;2023-11-21T11:28:11;93037.00;;;6.09;85.18
82388;BME280;72027;47.420;9.310;2023-11-21T11:30:48;93029.41;;;6.13;84.87
82388;BME280;72027;47.420;9.310;2023-11-21T11:33:29;93037.66;;;6.13;85.58
82388;BME280;72027;47.420;9.310;2023-11-21T11:36:05;93030.94;;;6.14;85.15
82388;BME280;72027;47.420;9.310;2023-11-21T11:38:34;93040.75;;;6.15;85.25
82388;BME280;72027;47.420;9.310;2023-11-21T11:41:03;93023.47;;;6.14;85.44
82388;BME280;72027;47.420;9.310;2023-11-21T11:43:33;93027.31;;;6.17;85.06
82388;BME280;72027;47.420;9.310;2023-11-21T11:46:11;93028.84;;;6.18;84.71
82388;BME280;72027;47.420;9.310;2023-11-21T11:48:40;93025.44;;;6.14;84.75
82388;BME280;72027;47.420;9.310;2023-11-21T11:51:11;93029.41;;;6.13;85.23
82388;BME280;72027;47.420;9.310;2023-11-21T11:53:41;93027.56;;;6.10;85.24
82388;BME280;72027;47.420;9.310;2023-11-21T11:56:21;93028.47;;;6.07;85.53
82388;BME280;72027;47.420;9.310;2023-11-21T11:58:52;93028.25;;;6.01;85.37
82388;BME280;72027;47.420;9.310;2023-11-21T12:01:21;93023.63;;;5.98;85.32
82388;BME280;72027;47.420;9.310;2023-11-21T12:04:23;93030.78;;;5.95;85.16
82388;BME280;72027;47.420;9.310;2023-11-21T12:06:51;93032.41;;;5.93;84.71
82388;BME280;72027;47.420;9.310;2023-11-21T12:09:20;93026.63;;;5.91;84.99
82388;BME280;72027;47.420;9.310;2023-11-21T12:11:49;93024.75;;;5.88;84.99
82388;BME280;72027;47.420;9.310;2023-11-21T12:14:18;93026.09;;;5.83;85.04
82388;BME280;72027;47.420;9.310;2023-11-21T12:16:47;93022.69;;;5.79;85.20
82388;BME280;72027;47.420;9.310;2023-11-21T12:19:14;93026.66;;;5.78;85.01
82388;BME280;72027;47.420;9.310;2023-11-21T12:21:43;93025.91;;;5.78;85.46
82388;BME280;72027;47.420;9.310;2023-11-21T12:24:11;93029.53;;;5.74;85.04
82388;BME280;72027;47.420;9.310;2023-11-21T12:26:41;93029.31;;;5.69;85.08
82388;BME280;72027;47.420;9.310;2023-11-21T12:29:09;93033.28;;;5.68;85.38
82388;BME280;72027;47.420;9.310;2023-11-21T12:31:38;93039.44;;;5.72;85.94
82388;BME280;72027;47.420;9.310;2023-11-21T12:34:07;93032.72;;;5.73;86.10
82388;BME280;72027;47.420;9.310;2023-11-21T12:36:38;93028.75;;;5.74;86.91
82388;BME280;72027;47.420;9.310;2023-11-21T12:39:06;93035.22;;;5.80;87.46
82388;BME280;72027;47.420;9.310;2023-11-21T12:41:35;93042.91;;;5.85;87.86
82388;BME280;72027;47.420;9.310;2023-11-21T12:44:03;93048.59;;;5.91;87.76
82388;BME280;72027;47.420;9.310;2023-11-21T12:46:31;93043.78;;;5.95;88.24
82388;BME280;72027;47.420;9.310;2023-11-21T12:49:02;93039.69;;;6.00;88.48
82388;BME280;72027;47.420;9.310;2023-11-21T12:51:30;93040.53;;;6.09;88.00
82388;BME280;72027;47.420;9.310;2023-11-21T12:53:58;93043.16;;;6.13;88.03
82388;BME280;72027;47.420;9.310;2023-11-21T12:56:27;93043.69;;;6.21;87.97
82388;BME280;72027;47.420;9.310;2023-11-21T12:58:55;93042.03;;;6.23;87.79
82388;BME280;72027;47.420;9.310;2023-11-21T13:01:26;93044.53;;;6.30;87.42
82388;BME280;72027;47.420;9.310;2023-11-21T13:03:57;93048.66;;;6.35;86.84
82388;BME280;72027;47.420;9.310;2023-11-21T13:06:27;93052.97;;;6.36;87.23
82388;BME280;72027;47.420;9.310;2023-11-21T13:09:00;93049.91;;;6.34;86.74
82388;BME280;72027;47.420;9.310;2023-11-21T13:11:28;93050.31;;;6.32;86.94
82388;BME280;72027;47.420;9.310;2023-11-21T13:13:59;93042.66;;;6.27;85.49
82388;BME280;72027;47.420;9.310;2023-11-21T13:16:27;93041.16;;;6.13;85.24
82388;BME280;72027;47.420;9.310;2023-11-21T13:18:55;93052.13;;;6.04;86.00